메인 페이지
METAR-TAF:

METAR-TAF

공항 :

이아시, 루마니아

위도: 47-10N, 경도: 027-38E, 고도: 102m

현재 날씨관측

예보는 20분 전, 20:00시(UTC)에 발표되었습니다.
여러 방향의 바람 1kt
온도 12°C
습도 94%
기압 1017 hPa
시정: 8000m
고도 1900ft 상공 구름 보통

METAR: LRIA 252000Z VRB01KT 8000 SCT019 12/11 Q1017 R14/19//95

시각: 22:20 (20:20 UTC)

예보

예보는 3 시간 20분 전, 17:00시(UTC)에 발표되었습니다.
예보 대상 시간: 25일 18시부터 26일 03시까지 (UTC)
여러 방향의 바람 4kt
시정 10km 이상
1500m 미만 상공 구름 및 적란운 없음
일시적
25일 23시부터 26일 03시까지 (UTC)
시정: 3000m
박무

TAF: LRIA 251700Z 2518/2603 VRB04KT CAVOK TEMPO 2523/2603 3000 BR

4,000개 이상의 공항 관측 자료 및 예보 (METAR 및 TAF 보고).

지도상에서 검색 가능한 기상관측소가 노란 점과 빨간 점으로 표시되어 있습니다.

기상관측소 명을 보려면 표시 위로 마우스를 이동하세요.

날씨 관측과 예보를 보려면 클릭하세요.

지도 변경 : 확대하려면 엑스 표시가 있는 녹색 버튼, 축소하려면 빼기 표시가 있는 녹색 버튼, 다음 페이지의 지도를 보려면 녹색 화살표를 클릭하세요.


METAR-TAF: